sensor_id;sensor_type;location;lat;lon;timestamp;P1;durP1;ratioP1;P2;durP2;ratioP2
26774;SDS011;14362;51.902;7.626;2022-10-16T00:02:19;8.07;;;5.13;;
26774;SDS011;14362;51.902;7.626;2022-10-16T00:06:21;9.57;;;5.60;;
26774;SDS011;14362;51.902;7.626;2022-10-16T00:10:23;9.40;;;5.30;;
26774;SDS011;14362;51.902;7.626;2022-10-16T00:14:25;6.80;;;5.55;;
26774;SDS011;14362;51.902;7.626;2022-10-16T00:18:28;8.15;;;5.93;;
26774;SDS011;14362;51.902;7.626;2022-10-16T00:22:30;8.95;;;5.45;;
26774;SDS011;14362;51.902;7.626;2022-10-16T00:26:32;8.88;;;5.68;;
26774;SDS011;14362;51.902;7.626;2022-10-16T00:30:37;6.80;;;5.07;;
26774;SDS011;14362;51.902;7.626;2022-10-16T00:34:40;5.85;;;5.13;;
26774;SDS011;14362;51.902;7.626;2022-10-16T00:38:41;7.05;;;4.95;;
26774;SDS011;14362;51.902;7.626;2022-10-16T00:42:42;7.82;;;5.43;;
26774;SDS011;14362;51.902;7.626;2022-10-16T00:46:44;8.40;;;5.97;;
26774;SDS011;14362;51.902;7.626;2022-10-16T00:50:47;9.43;;;6.20;;
26774;SDS011;14362;51.902;7.626;2022-10-16T00:54:48;6.45;;;5.53;;
26774;SDS011;14362;51.902;7.626;2022-10-16T00:58:50;6.63;;;5.45;;
26774;SDS011;14362;51.902;7.626;2022-10-16T01:02:53;8.63;;;5.65;;
26774;SDS011;14362;51.902;7.626;2022-10-16T01:06:58;6.82;;;5.55;;
26774;SDS011;14362;51.902;7.626;2022-10-16T01:11:09;8.18;;;6.13;;
26774;SDS011;14362;51.902;7.626;2022-10-16T01:15:20;7.95;;;5.97;;
26774;SDS011;14362;51.902;7.626;2022-10-16T01:19:31;8.77;;;6.68;;
26774;SDS011;14362;51.902;7.626;2022-10-16T01:23:46;10.75;;;7.10;;
26774;SDS011;14362;51.902;7.626;2022-10-16T01:27:59;10.45;;;7.22;;
26774;SDS011;14362;51.902;7.626;2022-10-16T01:32:05;8.35;;;7.13;;
26774;SDS011;14362;51.902;7.626;2022-10-16T01:36:12;13.68;;;7.45;;
26774;SDS011;14362;51.902;7.626;2022-10-16T01:40:17;12.40;;;7.72;;
26774;SDS011;14362;51.902;7.626;2022-10-16T01:44:24;10.35;;;7.18;;
26774;SDS011;14362;51.902;7.626;2022-10-16T01:48:29;9.15;;;6.82;;
26774;SDS011;14362;51.902;7.626;2022-10-16T01:52:33;10.90;;;6.78;;
26774;SDS011;14362;51.902;7.626;2022-10-16T01:56:38;8.57;;;7.03;;
26774;SDS011;14362;51.902;7.626;2022-10-16T02:00:43;10.82;;;6.80;;
26774;SDS011;14362;51.902;7.626;2022-10-16T02:04:46;11.93;;;6.75;;
26774;SDS011;14362;51.902;7.626;2022-10-16T02:08:52;10.25;;;6.60;;
26774;SDS011;14362;51.902;7.626;2022-10-16T02:12:55;7.32;;;6.32;;
26774;SDS011;14362;51.902;7.626;2022-10-16T02:17:01;8.35;;;6.35;;
26774;SDS011;14362;51.902;7.626;2022-10-16T02:21:05;8.93;;;6.45;;
26774;SDS011;14362;51.902;7.626;2022-10-16T02:25:15;7.93;;;6.65;;
26774;SDS011;14362;51.902;7.626;2022-10-16T02:29:21;7.53;;;6.53;;
26774;SDS011;14362;51.902;7.626;2022-10-16T02:33:27;8.07;;;6.03;;
26774;SDS011;14362;51.902;7.626;2022-10-16T02:37:32;7.90;;;6.15;;
26774;SDS011;14362;51.902;7.626;2022-10-16T02:41:33;6.00;;;5.40;;
26774;SDS011;14362;51.902;7.626;2022-10-16T02:45:35;9.90;;;6.47;;
26774;SDS011;14362;51.902;7.626;2022-10-16T02:49:38;6.63;;;5.85;;
26774;SDS011;14362;51.902;7.626;2022-10-16T02:53:39;6.35;;;5.75;;
26774;SDS011;14362;51.902;7.626;2022-10-16T02:57:41;6.47;;;5.43;;
26774;SDS011;14362;51.902;7.626;2022-10-16T03:01:42;7.10;;;5.55;;
26774;SDS011;14362;51.902;7.626;2022-10-16T03:05:45;6.22;;;5.63;;
26774;SDS011;14362;51.902;7.626;2022-10-16T03:09:46;8.05;;;5.43;;
26774;SDS011;14362;51.902;7.626;2022-10-16T03:13:48;7.75;;;5.72;;
26774;SDS011;14362;51.902;7.626;2022-10-16T03:17:49;6.85;;;5.18;;
26774;SDS011;14362;51.902;7.626;2022-10-16T03:21:52;5.28;;;4.78;;
26774;SDS011;14362;51.902;7.626;2022-10-16T03:25:53;7.22;;;5.03;;
26774;SDS011;14362;51.902;7.626;2022-10-16T03:29:55;5.47;;;4.88;;
26774;SDS011;14362;51.902;7.626;2022-10-16T03:33:56;6.70;;;5.13;;
26774;SDS011;14362;51.902;7.626;2022-10-16T03:37:59;7.00;;;5.20;;
26774;SDS011;14362;51.902;7.626;2022-10-16T03:42:00;6.38;;;4.88;;
26774;SDS011;14362;51.902;7.626;2022-10-16T03:46:02;8.65;;;5.05;;
26774;SDS011;14362;51.902;7.626;2022-10-16T03:50:04;6.68;;;4.90;;
26774;SDS011;14362;51.902;7.626;2022-10-16T03:54:09;6.28;;;4.85;;
26774;SDS011;14362;51.902;7.626;2022-10-16T03:58:10;5.70;;;5.00;;
26774;SDS011;14362;51.902;7.626;2022-10-16T04:02:12;16.60;;;6.20;;
26774;SDS011;14362;51.902;7.626;2022-10-16T04:06:14;9.52;;;4.85;;
26774;SDS011;14362;51.902;7.626;2022-10-16T04:10:16;6.93;;;5.20;;
26774;SDS011;14362;51.902;7.626;2022-10-16T04:14:19;9.10;;;5.20;;
26774;SDS011;14362;51.902;7.626;2022-10-16T04:18:20;8.75;;;5.47;;
26774;SDS011;14362;51.902;7.626;2022-10-16T04:22:21;5.78;;;4.93;;
26774;SDS011;14362;51.902;7.626;2022-10-16T04:26:24;7.00;;;4.85;;
26774;SDS011;14362;51.902;7.626;2022-10-16T04:30:26;10.18;;;5.38;;
26774;SDS011;14362;51.902;7.626;2022-10-16T04:34:27;6.75;;;4.82;;
26774;SDS011;14362;51.902;7.626;2022-10-16T04:38:29;5.18;;;4.68;;
26774;SDS011;14362;51.902;7.626;2022-10-16T04:42:32;8.43;;;4.57;;
26774;SDS011;14362;51.902;7.626;2022-10-16T04:46:33;9.00;;;4.75;;
26774;SDS011;14362;51.902;7.626;2022-10-16T04:50:35;7.35;;;4.82;;
26774;SDS011;14362;51.902;7.626;2022-10-16T04:54:36;5.72;;;4.65;;
26774;SDS011;14362;51.902;7.626;2022-10-16T04:58:39;6.03;;;4.15;;
26774;SDS011;14362;51.902;7.626;2022-10-16T05:02:41;4.63;;;3.55;;
26774;SDS011;14362;51.902;7.626;2022-10-16T05:06:42;7.90;;;4.45;;
26774;SDS011;14362;51.902;7.626;2022-10-16T05:10:44;5.40;;;4.30;;
26774;SDS011;14362;51.902;7.626;2022-10-16T05:14:47;4.22;;;3.67;;
26774;SDS011;14362;51.902;7.626;2022-10-16T05:18:49;4.93;;;4.40;;
26774;SDS011;14362;51.902;7.626;2022-10-16T05:22:52;4.18;;;3.70;;
26774;SDS011;14362;51.902;7.626;2022-10-16T05:26:53;4.45;;;3.72;;
26774;SDS011;14362;51.902;7.626;2022-10-16T05:30:56;5.05;;;4.05;;
26774;SDS011;14362;51.902;7.626;2022-10-16T05:34:57;4.10;;;3.70;;
26774;SDS011;14362;51.902;7.626;2022-10-16T05:38:59;5.82;;;3.70;;
26774;SDS011;14362;51.902;7.626;2022-10-16T05:43:01;4.13;;;3.72;;
26774;SDS011;14362;51.902;7.626;2022-10-16T05:47:04;5.88;;;4.25;;
26774;SDS011;14362;51.902;7.626;2022-10-16T05:51:06;5.72;;;3.75;;
26774;SDS011;14362;51.902;7.626;2022-10-16T05:55:09;3.92;;;3.53;;
26774;SDS011;14362;51.902;7.626;2022-10-16T05:59:11;5.25;;;3.47;;
26774;SDS011;14362;51.902;7.626;2022-10-16T06:03:13;3.13;;;2.88;;
26774;SDS011;14362;51.902;7.626;2022-10-16T06:07:15;5.05;;;2.90;;
26774;SDS011;14362;51.902;7.626;2022-10-16T06:11:17;4.50;;;2.90;;
26774;SDS011;14362;51.902;7.626;2022-10-16T06:15:20;3.67;;;2.70;;
26774;SDS011;14362;51.902;7.626;2022-10-16T06:19:23;3.00;;;2.63;;
26774;SDS011;14362;51.902;7.626;2022-10-16T06:23:24;2.72;;;2.53;;
26774;SDS011;14362;51.902;7.626;2022-10-16T06:27:26;3.67;;;2.40;;
26774;SDS011;14362;51.902;7.626;2022-10-16T06:31:28;3.63;;;2.40;;
26774;SDS011;14362;51.902;7.626;2022-10-16T06:35:32;3.60;;;2.28;;
26774;SDS011;14362;51.902;7.626;2022-10-16T06:39:33;3.40;;;2.25;;
26774;SDS011;14362;51.902;7.626;2022-10-16T06:43:35;3.85;;;2.67;;
26774;SDS011;14362;51.902;7.626;2022-10-16T06:47:36;2.55;;;2.03;;
26774;SDS011;14362;51.902;7.626;2022-10-16T06:51:39;3.45;;;2.15;;
26774;SDS011;14362;51.902;7.626;2022-10-16T06:55:41;3.17;;;2.15;;
26774;SDS011;14362;51.902;7.626;2022-10-16T06:59:43;3.67;;;2.40;;
26774;SDS011;14362;51.902;7.626;2022-10-16T07:03:45;3.20;;;2.25;;
26774;SDS011;14362;51.902;7.626;2022-10-16T07:07:49;3.15;;;1.98;;
26774;SDS011;14362;51.902;7.626;2022-10-16T07:11:50;2.88;;;1.90;;
26774;SDS011;14362;51.902;7.626;2022-10-16T07:15:52;2.83;;;1.95;;
26774;SDS011;14362;51.902;7.626;2022-10-16T07:19:53;2.75;;;1.88;;
26774;SDS011;14362;51.902;7.626;2022-10-16T07:23:57;2.70;;;1.80;;
26774;SDS011;14362;51.902;7.626;2022-10-16T07:28:01;2.80;;;2.22;;
26774;SDS011;14362;51.902;7.626;2022-10-16T07:32:02;3.22;;;2.10;;
26774;SDS011;14362;51.902;7.626;2022-10-16T07:36:04;2.80;;;2.22;;
26774;SDS011;14362;51.902;7.626;2022-10-16T07:40:08;4.35;;;2.10;;
26774;SDS011;14362;51.902;7.626;2022-10-16T07:44:10;5.77;;;2.20;;
26774;SDS011;14362;51.902;7.626;2022-10-16T07:48:11;4.65;;;2.33;;
26774;SDS011;14362;51.902;7.626;2022-10-16T07:52:12;2.28;;;2.08;;
26774;SDS011;14362;51.902;7.626;2022-10-16T07:56:15;2.30;;;2.00;;
26774;SDS011;14362;51.902;7.626;2022-10-16T08:00:18;2.58;;;2.10;;
26774;SDS011;14362;51.902;7.626;2022-10-16T08:04:19;3.65;;;2.30;;
26774;SDS011;14362;51.902;7.626;2022-10-16T08:08:21;6.13;;;2.10;;
26774;SDS011;14362;51.902;7.626;2022-10-16T08:12:23;2.70;;;2.08;;
26774;SDS011;14362;51.902;7.626;2022-10-16T08:16:25;3.47;;;2.55;;
26774;SDS011;14362;51.902;7.626;2022-10-16T08:20:27;3.47;;;2.40;;
26774;SDS011;14362;51.902;7.626;2022-10-16T08:24:29;4.47;;;2.33;;
26774;SDS011;14362;51.902;7.626;2022-10-16T08:28:33;3.13;;;2.13;;
26774;SDS011;14362;51.902;7.626;2022-10-16T08:32:35;3.40;;;2.30;;
26774;SDS011;14362;51.902;7.626;2022-10-16T08:36:36;4.28;;;2.20;;
26774;SDS011;14362;51.902;7.626;2022-10-16T08:40:38;8.98;;;2.42;;
26774;SDS011;14362;51.902;7.626;2022-10-16T08:44:49;6.75;;;2.13;;
26774;SDS011;14362;51.902;7.626;2022-10-16T08:53:10;4.95;;;2.20;;
26774;SDS011;14362;51.902;7.626;2022-10-16T08:57:19;4.68;;;2.38;;
26774;SDS011;14362;51.902;7.626;2022-10-16T09:01:23;3.25;;;1.92;;
26774;SDS011;14362;51.902;7.626;2022-10-16T09:05:37;4.90;;;2.17;;
26774;SDS011;14362;51.902;7.626;2022-10-16T09:09:53;3.25;;;1.77;;
26774;SDS011;14362;51.902;7.626;2022-10-16T09:14:06;4.78;;;1.70;;
26774;SDS011;14362;51.902;7.626;2022-10-16T09:18:21;5.85;;;2.28;;
26774;SDS011;14362;51.902;7.626;2022-10-16T09:22:28;3.08;;;1.95;;
26774;SDS011;14362;51.902;7.626;2022-10-16T09:26:32;8.57;;;1.80;;
26774;SDS011;14362;51.902;7.626;2022-10-16T09:30:33;2.65;;;1.42;;
26774;SDS011;14362;51.902;7.626;2022-10-16T09:34:36;5.53;;;1.30;;
26774;SDS011;14362;51.902;7.626;2022-10-16T09:38:43;5.68;;;2.10;;
26774;SDS011;14362;51.902;7.626;2022-10-16T09:42:44;4.97;;;1.42;;
26774;SDS011;14362;51.902;7.626;2022-10-16T09:46:46;5.55;;;1.52;;
26774;SDS011;14362;51.902;7.626;2022-10-16T09:50:56;4.55;;;1.55;;
26774;SDS011;14362;51.902;7.626;2022-10-16T09:54:59;3.28;;;1.63;;
26774;SDS011;14362;51.902;7.626;2022-10-16T09:59:02;2.35;;;1.50;;
26774;SDS011;14362;51.902;7.626;2022-10-16T10:03:11;4.45;;;1.48;;
26774;SDS011;14362;51.902;7.626;2022-10-16T10:07:18;2.95;;;1.52;;
26774;SDS011;14362;51.902;7.626;2022-10-16T10:11:38;3.05;;;1.70;;
26774;SDS011;14362;51.902;7.626;2022-10-16T10:15:41;6.45;;;3.22;;
26774;SDS011;14362;51.902;7.626;2022-10-16T10:19:45;4.97;;;3.08;;
26774;SDS011;14362;51.902;7.626;2022-10-16T10:23:55;3.85;;;1.88;;
26774;SDS011;14362;51.902;7.626;2022-10-16T10:32:38;3.60;;;1.15;;
26774;SDS011;14362;51.902;7.626;2022-10-16T10:36:49;6.18;;;1.73;;
26774;SDS011;14362;51.902;7.626;2022-10-16T10:41:00;2.65;;;1.05;;
26774;SDS011;14362;51.902;7.626;2022-10-16T10:45:18;4.18;;;1.85;;
26774;SDS011;14362;51.902;7.626;2022-10-16T10:49:31;3.28;;;1.13;;
26774;SDS011;14362;51.902;7.626;2022-10-16T10:53:45;4.35;;;1.20;;
26774;SDS011;14362;51.902;7.626;2022-10-16T11:02:37;3.33;;;1.17;;
26774;SDS011;14362;51.902;7.626;2022-10-16T11:06:42;1.63;;;0.70;;
26774;SDS011;14362;51.902;7.626;2022-10-16T11:10:50;3.15;;;1.15;;
26774;SDS011;14362;51.902;7.626;2022-10-16T11:14:55;3.47;;;1.10;;
26774;SDS011;14362;51.902;7.626;2022-10-16T11:19:04;6.65;;;1.13;;
26774;SDS011;14362;51.902;7.626;2022-10-16T11:23:16;1.83;;;0.98;;
26774;SDS011;14362;51.902;7.626;2022-10-16T11:27:29;5.43;;;1.08;;
26774;SDS011;14362;51.902;7.626;2022-10-16T11:31:38;1.95;;;0.80;;
26774;SDS011;14362;51.902;7.626;2022-10-16T11:35:47;2.03;;;0.80;;
26774;SDS011;14362;51.902;7.626;2022-10-16T11:39:54;2.88;;;0.90;;
26774;SDS011;14362;51.902;7.626;2022-10-16T11:44:05;5.35;;;0.90;;
26774;SDS011;14362;51.902;7.626;2022-10-16T11:48:18;3.05;;;0.88;;
26774;SDS011;14362;51.902;7.626;2022-10-16T11:52:28;3.83;;;1.00;;
26774;SDS011;14362;51.902;7.626;2022-10-16T11:56:35;5.22;;;0.90;;
26774;SDS011;14362;51.902;7.626;2022-10-16T12:00:40;2.78;;;1.13;;
26774;SDS011;14362;51.902;7.626;2022-10-16T12:04:48;5.45;;;0.95;;
26774;SDS011;14362;51.902;7.626;2022-10-16T12:09:00;2.75;;;0.93;;
26774;SDS011;14362;51.902;7.626;2022-10-16T12:13:03;2.47;;;0.90;;
26774;SDS011;14362;51.902;7.626;2022-10-16T12:21:29;2.25;;;0.80;;
26774;SDS011;14362;51.902;7.626;2022-10-16T12:25:33;2.70;;;1.00;;
26774;SDS011;14362;51.902;7.626;2022-10-16T12:29:37;1.00;;;0.70;;
26774;SDS011;14362;51.902;7.626;2022-10-16T12:33:56;2.47;;;1.05;;
26774;SDS011;14362;51.902;7.626;2022-10-16T12:38:07;1.73;;;0.57;;
26774;SDS011;14362;51.902;7.626;2022-10-16T12:42:21;3.28;;;0.90;;
26774;SDS011;14362;51.902;7.626;2022-10-16T12:50:44;2.28;;;0.75;;
26774;SDS011;14362;51.902;7.626;2022-10-16T12:54:45;2.28;;;0.75;;
26774;SDS011;14362;51.902;7.626;2022-10-16T12:58:55;2.13;;;0.77;;
26774;SDS011;14362;51.902;7.626;2022-10-16T13:03:22;2.35;;;0.80;;
26774;SDS011;14362;51.902;7.626;2022-10-16T13:07:37;1.60;;;0.80;;
26774;SDS011;14362;51.902;7.626;2022-10-16T13:11:52;4.07;;;1.00;;
26774;SDS011;14362;51.902;7.626;2022-10-16T13:16:10;2.78;;;1.00;;
26774;SDS011;14362;51.902;7.626;2022-10-16T13:20:19;3.97;;;1.00;;
26774;SDS011;14362;51.902;7.626;2022-10-16T13:24:32;1.17;;;0.60;;
26774;SDS011;14362;51.902;7.626;2022-10-16T13:28:43;4.57;;;0.70;;
26774;SDS011;14362;51.902;7.626;2022-10-16T13:32:46;4.03;;;1.00;;
26774;SDS011;14362;51.902;7.626;2022-10-16T13:36:50;3.15;;;1.15;;
26774;SDS011;14362;51.902;7.626;2022-10-16T13:40:54;3.38;;;1.05;;
26774;SDS011;14362;51.902;7.626;2022-10-16T13:44:57;1.95;;;0.80;;
26774;SDS011;14362;51.902;7.626;2022-10-16T13:49:00;1.95;;;0.90;;
26774;SDS011;14362;51.902;7.626;2022-10-16T13:53:04;2.55;;;0.82;;
26774;SDS011;14362;51.902;7.626;2022-10-16T13:57:06;5.68;;;0.90;;
26774;SDS011;14362;51.902;7.626;2022-10-16T14:01:15;1.23;;;1.00;;
26774;SDS011;14362;51.902;7.626;2022-10-16T14:05:19;1.92;;;1.65;;
26774;SDS011;14362;51.902;7.626;2022-10-16T14:09:22;3.72;;;1.27;;
26774;SDS011;14362;51.902;7.626;2022-10-16T14:13:29;13.90;;;9.30;;
26774;SDS011;14362;51.902;7.626;2022-10-16T14:17:32;2.22;;;1.75;;
26774;SDS011;14362;51.902;7.626;2022-10-16T14:21:38;2.45;;;1.40;;
26774;SDS011;14362;51.902;7.626;2022-10-16T14:25:42;5.28;;;4.32;;
26774;SDS011;14362;51.902;7.626;2022-10-16T14:29:43;7.35;;;3.88;;
26774;SDS011;14362;51.902;7.626;2022-10-16T14:33:44;4.78;;;2.25;;
26774;SDS011;14362;51.902;7.626;2022-10-16T14:37:50;4.72;;;1.80;;
26774;SDS011;14362;51.902;7.626;2022-10-16T14:41:54;3.15;;;1.25;;
26774;SDS011;14362;51.902;7.626;2022-10-16T14:45:57;3.42;;;1.00;;
26774;SDS011;14362;51.902;7.626;2022-10-16T14:49:59;3.00;;;0.88;;
26774;SDS011;14362;51.902;7.626;2022-10-16T14:54:02;2.20;;;1.23;;
26774;SDS011;14362;51.902;7.626;2022-10-16T14:58:04;2.00;;;1.40;;
26774;SDS011;14362;51.902;7.626;2022-10-16T15:02:09;5.60;;;2.30;;
26774;SDS011;14362;51.902;7.626;2022-10-16T15:06:21;2.03;;;1.52;;
26774;SDS011;14362;51.902;7.626;2022-10-16T15:10:25;5.07;;;1.42;;
26774;SDS011;14362;51.902;7.626;2022-10-16T15:14:29;1.67;;;1.27;;
26774;SDS011;14362;51.902;7.626;2022-10-16T15:18:31;1.88;;;1.30;;
26774;SDS011;14362;51.902;7.626;2022-10-16T15:22:32;4.55;;;1.58;;
26774;SDS011;14362;51.902;7.626;2022-10-16T15:26:35;3.20;;;1.55;;
26774;SDS011;14362;51.902;7.626;2022-10-16T15:30:37;2.45;;;1.50;;
26774;SDS011;14362;51.902;7.626;2022-10-16T15:34:38;2.50;;;1.40;;
26774;SDS011;14362;51.902;7.626;2022-10-16T15:38:40;1.95;;;1.42;;
26774;SDS011;14362;51.902;7.626;2022-10-16T15:42:43;2.97;;;1.65;;
26774;SDS011;14362;51.902;7.626;2022-10-16T15:46:44;3.13;;;1.70;;
26774;SDS011;14362;51.902;7.626;2022-10-16T15:50:46;3.67;;;2.20;;
26774;SDS011;14362;51.902;7.626;2022-10-16T15:54:47;3.00;;;1.83;;
26774;SDS011;14362;51.902;7.626;2022-10-16T15:58:50;4.20;;;1.80;;
26774;SDS011;14362;51.902;7.626;2022-10-16T16:02:52;2.92;;;1.90;;
26774;SDS011;14362;51.902;7.626;2022-10-16T16:06:54;6.25;;;2.03;;
26774;SDS011;14362;51.902;7.626;2022-10-16T16:10:59;2.30;;;1.60;;
26774;SDS011;14362;51.902;7.626;2022-10-16T16:15:02;2.85;;;1.40;;
26774;SDS011;14362;51.902;7.626;2022-10-16T16:19:04;4.25;;;1.83;;
26774;SDS011;14362;51.902;7.626;2022-10-16T16:23:06;2.17;;;1.80;;
26774;SDS011;14362;51.902;7.626;2022-10-16T16:27:07;2.63;;;2.08;;
26774;SDS011;14362;51.902;7.626;2022-10-16T16:31:10;2.50;;;1.77;;
26774;SDS011;14362;51.902;7.626;2022-10-16T16:35:12;4.57;;;2.30;;
26774;SDS011;14362;51.902;7.626;2022-10-16T16:39:13;4.43;;;2.35;;
26774;SDS011;14362;51.902;7.626;2022-10-16T16:43:14;3.53;;;2.28;;
26774;SDS011;14362;51.902;7.626;2022-10-16T16:47:17;6.28;;;2.45;;
26774;SDS011;14362;51.902;7.626;2022-10-16T16:51:19;4.20;;;2.20;;
26774;SDS011;14362;51.902;7.626;2022-10-16T16:55:20;3.90;;;2.20;;
26774;SDS011;14362;51.902;7.626;2022-10-16T16:59:22;6.18;;;3.47;;
26774;SDS011;14362;51.902;7.626;2022-10-16T17:03:25;3.50;;;3.08;;
26774;SDS011;14362;51.902;7.626;2022-10-16T17:07:26;6.32;;;2.97;;
26774;SDS011;14362;51.902;7.626;2022-10-16T17:11:33;7.50;;;4.43;;
26774;SDS011;14362;51.902;7.626;2022-10-16T17:15:35;8.35;;;5.20;;
26774;SDS011;14362;51.902;7.626;2022-10-16T17:19:37;6.05;;;4.50;;
26774;SDS011;14362;51.902;7.626;2022-10-16T17:23:39;8.15;;;5.13;;
26774;SDS011;14362;51.902;7.626;2022-10-16T17:27:41;7.63;;;4.50;;
26774;SDS011;14362;51.902;7.626;2022-10-16T17:31:42;5.65;;;4.15;;
26774;SDS011;14362;51.902;7.626;2022-10-16T17:35:46;5.55;;;4.30;;
26774;SDS011;14362;51.902;7.626;2022-10-16T17:39:48;6.13;;;4.10;;
26774;SDS011;14362;51.902;7.626;2022-10-16T17:43:50;8.40;;;4.43;;
26774;SDS011;14362;51.902;7.626;2022-10-16T17:47:52;8.63;;;4.28;;
26774;SDS011;14362;51.902;7.626;2022-10-16T17:51:55;8.02;;;4.60;;
26774;SDS011;14362;51.902;7.626;2022-10-16T17:56:00;7.10;;;4.72;;
26774;SDS011;14362;51.902;7.626;2022-10-16T18:00:03;7.68;;;4.90;;
26774;SDS011;14362;51.902;7.626;2022-10-16T18:04:06;7.95;;;5.45;;
26774;SDS011;14362;51.902;7.626;2022-10-16T18:08:10;6.90;;;5.95;;
26774;SDS011;14362;51.902;7.626;2022-10-16T18:12:11;10.63;;;7.18;;
26774;SDS011;14362;51.902;7.626;2022-10-16T18:16:13;8.25;;;6.75;;
26774;SDS011;14362;51.902;7.626;2022-10-16T18:20:16;8.48;;;6.78;;
26774;SDS011;14362;51.902;7.626;2022-10-16T18:24:20;10.13;;;6.60;;
26774;SDS011;14362;51.902;7.626;2022-10-16T18:28:23;8.05;;;6.50;;
26774;SDS011;14362;51.902;7.626;2022-10-16T18:32:25;7.93;;;6.40;;
26774;SDS011;14362;51.902;7.626;2022-10-16T18:36:28;7.40;;;6.22;;
26774;SDS011;14362;51.902;7.626;2022-10-16T18:40:35;7.68;;;6.43;;
26774;SDS011;14362;51.902;7.626;2022-10-16T18:44:36;8.15;;;6.18;;
26774;SDS011;14362;51.902;7.626;2022-10-16T18:48:38;10.10;;;6.95;;
26774;SDS011;14362;51.902;7.626;2022-10-16T18:52:45;9.25;;;6.85;;
26774;SDS011;14362;51.902;7.626;2022-10-16T18:56:49;11.05;;;6.35;;
26774;SDS011;14362;51.902;7.626;2022-10-16T19:00:51;7.30;;;5.80;;
26774;SDS011;14362;51.902;7.626;2022-10-16T19:04:53;7.10;;;5.88;;
26774;SDS011;14362;51.902;7.626;2022-10-16T19:08:54;9.30;;;6.22;;
26774;SDS011;14362;51.902;7.626;2022-10-16T19:12:57;9.52;;;6.57;;
26774;SDS011;14362;51.902;7.626;2022-10-16T19:16:59;7.43;;;5.88;;
26774;SDS011;14362;51.902;7.626;2022-10-16T19:21:00;8.68;;;5.95;;
26774;SDS011;14362;51.902;7.626;2022-10-16T19:25:02;6.00;;;4.95;;
26774;SDS011;14362;51.902;7.626;2022-10-16T19:29:05;5.13;;;4.63;;
26774;SDS011;14362;51.902;7.626;2022-10-16T19:33:07;8.35;;;4.97;;
26774;SDS011;14362;51.902;7.626;2022-10-16T19:37:08;10.38;;;5.72;;
26774;SDS011;14362;51.902;7.626;2022-10-16T19:41:11;6.63;;;5.78;;
26774;SDS011;14362;51.902;7.626;2022-10-16T19:45:15;6.10;;;5.07;;
26774;SDS011;14362;51.902;7.626;2022-10-16T19:49:17;5.88;;;4.93;;
26774;SDS011;14362;51.902;7.626;2022-10-16T20:01:30;4.90;;;4.07;;
26774;SDS011;14362;51.902;7.626;2022-10-16T20:09:58;6.35;;;4.93;;
26774;SDS011;14362;51.902;7.626;2022-10-16T20:14:00;6.15;;;4.50;;
26774;SDS011;14362;51.902;7.626;2022-10-16T20:18:02;6.53;;;4.57;;
26774;SDS011;14362;51.902;7.626;2022-10-16T20:22:03;6.32;;;5.72;;
26774;SDS011;14362;51.902;7.626;2022-10-16T20:26:06;8.27;;;5.85;;
26774;SDS011;14362;51.902;7.626;2022-10-16T20:34:11;6.68;;;5.82;;
26774;SDS011;14362;51.902;7.626;2022-10-16T20:38:14;7.30;;;6.35;;
26774;SDS011;14362;51.902;7.626;2022-10-16T20:42:18;9.80;;;5.97;;
26774;SDS011;14362;51.902;7.626;2022-10-16T20:46:20;6.45;;;5.75;;
26774;SDS011;14362;51.902;7.626;2022-10-16T20:50:22;7.53;;;5.78;;
26774;SDS011;14362;51.902;7.626;2022-10-16T20:54:24;8.02;;;6.88;;
26774;SDS011;14362;51.902;7.626;2022-10-16T20:58:27;10.77;;;9.50;;
26774;SDS011;14362;51.902;7.626;2022-10-16T21:02:28;12.65;;;10.20;;
26774;SDS011;14362;51.902;7.626;2022-10-16T21:06:30;11.27;;;9.68;;
26774;SDS011;14362;51.902;7.626;2022-10-16T21:10:32;13.95;;;8.93;;
26774;SDS011;14362;51.902;7.626;2022-10-16T21:14:35;11.60;;;8.85;;
26774;SDS011;14362;51.902;7.626;2022-10-16T21:18:37;12.93;;;8.45;;
26774;SDS011;14362;51.902;7.626;2022-10-16T21:22:39;9.75;;;8.45;;
26774;SDS011;14362;51.902;7.626;2022-10-16T21:26:40;9.05;;;8.20;;
26774;SDS011;14362;51.902;7.626;2022-10-16T21:30:43;11.10;;;8.27;;
26774;SDS011;14362;51.902;7.626;2022-10-16T21:34:45;8.70;;;7.70;;
26774;SDS011;14362;51.902;7.626;2022-10-16T21:38:46;10.85;;;9.15;;
26774;SDS011;14362;51.902;7.626;2022-10-16T21:42:48;10.85;;;8.05;;
26774;SDS011;14362;51.902;7.626;2022-10-16T21:46:51;13.32;;;8.50;;
26774;SDS011;14362;51.902;7.626;2022-10-16T21:50:52;8.30;;;7.07;;
26774;SDS011;14362;51.902;7.626;2022-10-16T21:54:54;8.73;;;7.20;;
26774;SDS011;14362;51.902;7.626;2022-10-16T21:58:55;7.97;;;7.18;;
26774;SDS011;14362;51.902;7.626;2022-10-16T22:02:58;10.07;;;7.68;;
26774;SDS011;14362;51.902;7.626;2022-10-16T22:07:00;8.30;;;7.22;;
26774;SDS011;14362;51.902;7.626;2022-10-16T22:11:02;7.55;;;6.85;;
26774;SDS011;14362;51.902;7.626;2022-10-16T22:15:05;7.90;;;6.85;;
26774;SDS011;14362;51.902;7.626;2022-10-16T22:19:09;8.05;;;6.70;;
26774;SDS011;14362;51.902;7.626;2022-10-16T22:23:11;5.93;;;5.32;;
26774;SDS011;14362;51.902;7.626;2022-10-16T22:27:13;5.95;;;5.20;;
26774;SDS011;14362;51.902;7.626;2022-10-16T22:31:14;7.10;;;5.50;;
26774;SDS011;14362;51.902;7.626;2022-10-16T22:35:18;5.32;;;4.88;;
26774;SDS011;14362;51.902;7.626;2022-10-16T22:39:19;6.28;;;5.25;;
26774;SDS011;14362;51.902;7.626;2022-10-16T22:43:20;5.22;;;4.72;;
26774;SDS011;14362;51.902;7.626;2022-10-16T22:47:22;6.38;;;5.43;;
26774;SDS011;14362;51.902;7.626;2022-10-16T22:51:25;5.07;;;4.53;;
26774;SDS011;14362;51.902;7.626;2022-10-16T22:55:27;5.60;;;5.10;;
26774;SDS011;14362;51.902;7.626;2022-10-16T22:59:29;5.15;;;4.65;;
26774;SDS011;14362;51.902;7.626;2022-10-16T23:03:30;5.57;;;5.03;;
26774;SDS011;14362;51.902;7.626;2022-10-16T23:07:33;5.63;;;4.55;;
26774;SDS011;14362;51.902;7.626;2022-10-16T23:11:34;5.22;;;4.70;;
26774;SDS011;14362;51.902;7.626;2022-10-16T23:15:37;5.55;;;5.05;;
26774;SDS011;14362;51.902;7.626;2022-10-16T23:19:39;5.90;;;4.70;;
26774;SDS011;14362;51.902;7.626;2022-10-16T23:23:42;6.50;;;5.20;;
26774;SDS011;14362;51.902;7.626;2022-10-16T23:27:44;5.85;;;5.35;;
26774;SDS011;14362;51.902;7.626;2022-10-16T23:31:46;6.07;;;4.88;;
26774;SDS011;14362;51.902;7.626;2022-10-16T23:35:47;6.38;;;5.72;;
26774;SDS011;14362;51.902;7.626;2022-10-16T23:39:50;7.80;;;5.82;;
26774;SDS011;14362;51.902;7.626;2022-10-16T23:43:52;6.57;;;5.85;;
26774;SDS011;14362;51.902;7.626;2022-10-16T23:47:54;8.30;;;5.43;;
26774;SDS011;14362;51.902;7.626;2022-10-16T23:51:55;9.55;;;6.22;;
26774;SDS011;14362;51.902;7.626;2022-10-16T23:55:58;6.80;;;6.20;;
26774;SDS011;14362;51.902;7.626;2022-10-16T23:59:59;6.63;;;5.85;;
